Terminal Aerodrome Forecast
Issued by NWS Topeka, KS

Home | Current Version | Previous Version | Text Only | Print | Product List | Glossary On
Versions: 1 2 3 4 5 6 7 8 9 10 11 12 13 14 15 16 17 18 19 20 21
000
FTUS43 KTOP 281100 CCA
TAFTOP
TAF COR
KTOP 281133Z 2812/2912 18006KT P6SM SKC WS010/22030KT
     FM281400 21012G18KT P6SM SCT200
     FM282300 19006KT P6SM SCT200=

USA.gov is the U.S. government's official web portal to all federal, state and local government web resources and services.